Time;durP1;ratioP1;P1;durP2;ratioP2;P2;SDS_P1;SDS_P2;PMS_P1;PMS_P2;Temp;Humidity;BMP_temperature;BMP_pressure;BME280_temperature;BME280_humidity;BME280_pressure;Samples;Min_cycle;Max_cycle;Signal;HPM_P1;HPM_P2
2023/12/09 00:01:18;;;;;;;91.45;52.30;;;25.90;2201.60;;;;;;5060874;28;20035;-62
2023/12/09 00:03:44;;;;;;;80.25;48.20;;;26.20;2201.60;;;;;;5071479;28;20487;-60
2023/12/09 00:06:10;;;;;;;86.45;54.22;;;26.10;2201.60;;;;;;5071343;28;20124;-62
2023/12/09 00:08:36;;;;;;;91.97;53.78;;;26.20;2201.60;;;;;;5071706;28;20032;-59
2023/12/09 00:11:02;;;;;;;125.28;71.97;;;26.30;2201.60;;;;;;5068585;28;20442;-59
2023/12/09 00:13:28;;;;;;;201.02;115.45;;;26.20;2201.60;;;;;;5065240;28;20081;-61
2023/12/09 00:15:54;;;;;;;166.35;95.75;;;26.30;2201.60;;;;;;5065477;28;20052;-62
2023/12/09 00:18:19;;;;;;;177.95;104.50;;;26.30;2201.60;;;;;;5071380;28;20040;-61
2023/12/09 00:20:45;;;;;;;109.65;65.55;;;26.40;2201.60;;;;;;5071358;28;20031;-61
2023/12/09 00:23:11;;;;;;;97.68;58.85;;;26.30;2201.60;;;;;;5070742;28;20021;-62
2023/12/09 00:25:37;;;;;;;89.80;53.65;;;25.80;2201.60;;;;;;5071221;28;20043;-62
2023/12/09 00:28:03;;;;;;;82.18;47.60;;;0.90;2201.60;;;;;;5071248;28;20063;-61
2023/12/09 00:30:29;;;;;;;88.82;54.50;;;25.60;2201.60;;;;;;5071320;28;20102;-61
2023/12/09 00:32:55;;;;;;;93.30;54.97;;;25.70;2201.60;;;;;;5071632;28;20036;-60
2023/12/09 00:35:21;;;;;;;75.18;41.92;;;25.70;2201.60;;;;;;5070963;28;20039;-61
2023/12/09 00:37:47;;;;;;;67.90;41.97;;;25.70;2201.60;;;;;;5071397;28;20155;-61
2023/12/09 00:40:13;;;;;;;64.95;36.17;;;25.70;2201.60;;;;;;5070744;28;20107;-61
2023/12/09 00:42:38;;;;;;;65.93;38.83;;;0.80;2201.60;;;;;;5070278;28;20173;-62
2023/12/09 00:45:05;;;;;;;100.90;60.30;;;25.60;2201.60;;;;;;5065801;28;20032;-62
2023/12/09 00:47:31;;;;;;;67.47;38.58;;;25.80;2201.60;;;;;;5069283;28;20406;-61
2023/12/09 00:49:57;;;;;;;68.53;38.60;;;25.90;2201.60;;;;;;5070860;28;20044;-62
2023/12/09 00:52:22;;;;;;;72.50;40.03;;;25.90;2201.60;;;;;;5071012;28;20021;-62
2023/12/09 00:54:48;;;;;;;61.28;35.30;;;26.00;2201.60;;;;;;5070961;28;20468;-61
2023/12/09 00:57:14;;;;;;;64.68;42.60;;;25.80;2201.60;;;;;;5070692;28;20432;-62
2023/12/09 00:59:40;;;;;;;58.40;36.03;;;25.80;2201.60;;;;;;5069880;28;20024;-61
2023/12/09 01:02:05;;;;;;;65.13;36.63;;;25.90;2201.60;;;;;;5070846;28;20063;-62
2023/12/09 01:04:31;;;;;;;58.63;38.22;;;25.90;2201.60;;;;;;5070127;28;20140;-62
2023/12/09 01:06:57;;;;;;;65.78;40.08;;;25.90;2201.60;;;;;;5070873;28;20537;-62
2023/12/09 01:09:23;;;;;;;67.55;37.80;;;25.90;2201.60;;;;;;5070452;28;20374;-62
2023/12/09 01:11:48;;;;;;;76.72;47.55;;;25.90;2201.60;;;;;;5070653;28;20744;-60
2023/12/09 01:14:14;;;;;;;69.13;42.80;;;25.60;2201.60;;;;;;5070149;28;20024;-62
2023/12/09 01:16:40;;;;;;;62.13;36.22;;;0.80;2201.60;;;;;;5064969;28;20028;-61
2023/12/09 01:19:06;;;;;;;54.22;31.48;;;25.60;2201.60;;;;;;5065704;28;20051;-61
2023/12/09 01:21:32;;;;;;;46.97;27.95;;;0.90;2201.60;;;;;;5070771;28;20471;-61
2023/12/09 01:23:58;;;;;;;52.28;31.67;;;0.60;2201.60;;;;;;5070641;28;20394;-61
2023/12/09 01:26:24;;;;;;;62.28;36.20;;;0.50;2201.60;;;;;;5070312;28;20031;-61
2023/12/09 01:28:49;;;;;;;66.97;37.33;;;0.30;2201.60;;;;;;5069849;28;20036;-62
2023/12/09 01:31:15;;;;;;;63.63;36.05;;;0.50;2201.60;;;;;;5070408;28;20025;-62
2023/12/09 01:33:41;;;;;;;65.93;40.10;;;0.70;2201.60;;;;;;5070258;28;20043;-61
2023/12/09 01:36:08;;;;;;;76.90;45.67;;;0.70;2201.60;;;;;;5069343;28;20024;-61
2023/12/09 01:38:35;;;;;;;67.82;37.25;;;0.80;2201.60;;;;;;5069903;28;20033;-61
2023/12/09 01:41:01;;;;;;;60.85;33.85;;;0.90;2201.60;;;;;;5069909;28;20029;-61
2023/12/09 01:43:27;;;;;;;53.55;33.38;;;0.90;2201.60;;;;;;5069931;28;20028;-60
2023/12/09 01:46:01;;;;;;;57.55;33.13;;;0.90;2201.60;;;;;;5069641;28;20040;-61
2023/12/09 01:48:27;;;;;;;65.07;36.53;;;0.70;2201.60;;;;;;5063767;28;20058;-61
2023/12/09 01:50:52;;;;;;;78.20;43.55;;;0.70;2201.60;;;;;;5069933;28;20103;-61
2023/12/09 01:53:18;;;;;;;52.17;30.48;;;0.60;2201.60;;;;;;5069623;28;20087;-62
2023/12/09 01:55:45;;;;;;;52.00;29.23;;;0.70;2201.60;;;;;;5069911;28;20048;-62
2023/12/09 01:58:11;;;;;;;56.33;35.00;;;0.60;2201.60;;;;;;5069664;28;20029;-62
2023/12/09 02:00:42;;;;;;;49.67;31.35;;;0.70;2201.60;;;;;;5069820;28;20024;-60
2023/12/09 02:03:07;;;;;;;51.72;30.05;;;0.80;2201.60;;;;;;5069788;28;20033;-62
2023/12/09 02:05:33;;;;;;;48.58;29.75;;;0.80;2201.60;;;;;;5069204;28;20032;-62
2023/12/09 02:07:59;;;;;;;53.50;31.50;;;0.80;2201.60;;;;;;5069632;28;20038;-60
2023/12/09 02:10:26;;;;;;;69.07;36.97;;;0.80;2201.60;;;;;;5069810;28;20097;-62
2023/12/09 02:13:08;;;;;;;65.15;35.70;;;0.70;2201.60;;;;;;5069156;28;20085;-62
2023/12/09 02:15:33;;;;;;;56.35;35.28;;;0.90;2201.60;;;;;;5069521;28;20032;-61
2023/12/09 02:18:03;;;;;;;62.03;33.90;;;25.60;2201.60;;;;;;5069202;28;20396;-62
2023/12/09 02:20:29;;;;;;;62.88;37.95;;;0.90;2201.60;;;;;;5065521;28;20134;-60
2023/12/09 02:23:07;;;;;;;60.28;33.67;;;0.80;2201.60;;;;;;5069663;28;20456;-60
2023/12/09 02:25:34;;;;;;;60.97;35.58;;;0.70;2201.60;;;;;;5069191;28;20044;-61
2023/12/09 02:28:13;;;;;;;51.63;28.92;;;0.70;2201.60;;;;;;5069162;28;20433;-61
2023/12/09 02:31:11;;;;;;;53.47;31.92;;;0.70;2201.60;;;;;;5069272;28;20024;-61
2023/12/09 02:33:40;;;;;;;58.20;35.20;;;0.60;2201.60;;;;;;5069192;28;20040;-62
2023/12/09 02:36:08;;;;;;;53.63;34.78;;;0.60;2201.60;;;;;;5069667;28;20017;-61
2023/12/09 02:38:37;;;;;;;53.13;29.95;;;0.30;2201.60;;;;;;5069103;28;20024;-61
2023/12/09 02:41:05;;;;;;;51.63;29.95;;;0.30;2201.60;;;;;;5069179;28;20040;-61
2023/12/09 02:43:31;;;;;;;48.17;30.02;;;0.20;2201.60;;;;;;5069047;28;20505;-61
2023/12/09 02:45:57;;;;;;;48.53;28.17;;;0.20;2201.60;;;;;;5069353;28;20036;-60
2023/12/09 02:48:23;;;;;;;52.88;29.48;;;0.10;2201.60;;;;;;5068517;28;20045;-62
2023/12/09 02:50:50;;;;;;;53.28;29.88;;;0.10;2201.60;;;;;;5063094;28;20055;-61
2023/12/09 02:53:16;;;;;;;52.28;30.05;;;0.30;2201.60;;;;;;5068734;28;20067;-62
2023/12/09 02:55:41;;;;;;;48.90;27.38;;;0.30;2201.60;;;;;;5069128;28;20095;-61
2023/12/09 02:58:07;;;;;;;37.20;22.92;;;0.40;2201.60;;;;;;5068957;28;20029;-61
2023/12/09 03:00:33;;;;;;;43.83;24.08;;;0.20;2201.60;;;;;;5068927;28;20026;-60
2023/12/09 03:02:59;;;;;;;47.05;27.67;;;0.20;2201.60;;;;;;5068569;28;20044;-60
2023/12/09 03:05:25;;;;;;;39.80;23.75;;;0.10;2201.60;;;;;;5069007;28;20035;-61
2023/12/09 03:07:51;;;;;;;39.03;23.20;;;0.40;2201.60;;;;;;5068802;28;20509;-60
2023/12/09 03:10:17;;;;;;;37.05;21.55;;;0.20;2201.60;;;;;;5068933;28;20020;-61
2023/12/09 03:12:43;;;;;;;41.83;28.02;;;0.30;2201.60;;;;;;5068665;28;20044;-61
2023/12/09 03:15:09;;;;;;;39.15;23.45;;;0.50;2201.60;;;;;;5069139;28;20016;-61
2023/12/09 03:17:36;;;;;;;37.75;21.23;;;0.50;2201.60;;;;;;5069342;28;20047;-60
2023/12/09 03:20:02;;;;;;;35.85;20.45;;;0.60;2201.60;;;;;;5069115;28;20057;-61
2023/12/09 03:22:29;;;;;;;41.30;23.50;;;0.50;2201.60;;;;;;5062785;28;20612;-61
2023/12/09 03:24:55;;;;;;;90.80;55.58;;;0.40;2201.60;;;;;;5061753;28;20017;-61
2023/12/09 03:27:21;;;;;;;69.13;40.15;;;0.20;2201.60;;;;;;5068788;28;20363;-61
2023/12/09 03:29:46;;;;;;;59.33;34.85;;;0.40;2201.60;;;;;;5068956;28;20467;-63
2023/12/09 03:32:12;;;;;;;56.63;32.65;;;0.30;2201.60;;;;;;5067901;28;20032;-62
2023/12/09 03:34:38;;;;;;;51.90;30.05;;;0.30;2201.60;;;;;;5068758;28;20032;-61
2023/12/09 03:37:04;;;;;;;42.75;25.60;;;0.30;2201.60;;;;;;5055342;28;20047;-61
2023/12/09 03:39:29;;;;;;;38.75;23.33;;;0.40;2201.60;;;;;;5068866;28;20501;-62
2023/12/09 03:41:55;;;;;;;44.13;25.23;;;0.30;2201.60;;;;;;5068278;28;20028;-62
2023/12/09 03:44:22;;;;;;;58.72;33.58;;;0.00;2201.60;;;;;;5068593;28;20038;-63
2023/12/09 03:46:48;;;;;;;65.13;35.83;;;13.00;2201.60;;;;;;5068493;28;20041;-62
2023/12/09 03:49:14;;;;;;;61.20;36.08;;;13.20;2201.60;;;;;;5068397;28;20017;-62
2023/12/09 03:51:39;;;;;;;53.88;30.25;;;13.40;2201.60;;;;;;5068283;28;20115;-61
2023/12/09 03:54:05;;;;;;;43.72;24.63;;;13.40;2201.60;;;;;;5068574;28;20071;-60
2023/12/09 03:56:31;;;;;;;46.30;27.40;;;13.30;2201.60;;;;;;5068410;28;20025;-61
2023/12/09 03:58:57;;;;;;;42.42;23.98;;;13.10;2201.60;;;;;;5067225;28;20043;-62
2023/12/09 04:01:24;;;;;;;39.60;22.38;;;13.00;2201.60;;;;;;5059523;28;20032;-60
2023/12/09 04:03:50;;;;;;;33.88;21.10;;;12.90;2201.60;;;;;;5071655;28;20108;-62
2023/12/09 04:06:17;;;;;;;36.03;21.95;;;0.00;2201.60;;;;;;5071976;28;20048;-61
2023/12/09 04:08:43;;;;;;;35.30;20.77;;;0.10;2201.60;;;;;;5072103;28;20033;-61
2023/12/09 04:11:09;;;;;;;36.55;23.92;;;0.00;2201.60;;;;;;5072158;28;20471;-62
2023/12/09 04:13:34;;;;;;;63.45;36.05;;;0.00;2201.60;;;;;;5071700;28;20052;-61
2023/12/09 04:16:01;;;;;;;96.18;52.70;;;0.10;2201.60;;;;;;5069802;28;20024;-61
2023/12/09 04:18:27;;;;;;;59.50;35.35;;;0.00;2201.60;;;;;;5060491;28;20018;-61
2023/12/09 04:20:52;;;;;;;58.55;31.35;;;0.10;2201.60;;;;;;5071426;28;20111;-61
2023/12/09 04:23:21;;;;;;;55.25;29.33;;;0.10;2201.60;;;;;;5071945;28;20494;-62
2023/12/09 04:25:47;;;;;;;51.63;27.30;;;0.00;2201.60;;;;;;5071666;28;20466;-62
2023/12/09 04:28:13;;;;;;;45.28;25.58;;;13.20;2201.60;;;;;;5071543;28;20025;-61
2023/12/09 04:30:39;;;;;;;40.00;23.73;;;13.40;2201.60;;;;;;5065050;28;20581;-61
2023/12/09 04:33:05;;;;;;;46.38;25.98;;;13.50;2201.60;;;;;;5065973;28;20103;-59
2023/12/09 04:35:30;;;;;;;48.75;26.20;;;13.60;2201.60;;;;;;5071386;28;20352;-60
2023/12/09 04:37:56;;;;;;;43.50;23.52;;;13.50;2201.60;;;;;;5071493;28;20024;-63
2023/12/09 04:40:22;;;;;;;45.42;26.73;;;13.40;2201.60;;;;;;5070951;28;20028;-61
2023/12/09 04:42:48;;;;;;;40.80;23.40;;;13.20;2201.60;;;;;;5071284;28;20078;-61
2023/12/09 04:45:13;;;;;;;40.53;20.98;;;13.00;2201.60;;;;;;5070854;28;20070;-61
2023/12/09 04:47:39;;;;;;;105.97;51.08;;;13.10;2201.60;;;;;;5071310;28;20033;-61
2023/12/09 04:50:08;;;;;;;45.38;25.23;;;13.00;2201.60;;;;;;5070923;28;20463;-61
2023/12/09 04:52:35;;;;;;;38.22;20.60;;;13.00;2201.60;;;;;;5071049;28;20036;-61
2023/12/09 04:55:00;;;;;;;44.80;24.42;;;13.00;2201.60;;;;;;5070975;28;20108;-61
2023/12/09 04:57:27;;;;;;;38.63;22.98;;;12.90;2201.60;;;;;;5071199;28;20107;-60
2023/12/09 04:59:53;;;;;;;108.55;60.60;;;12.90;2201.60;;;;;;5070559;28;20024;-62
2023/12/09 05:02:20;;;;;;;200.23;101.32;;;13.00;2201.60;;;;;;5070762;28;20048;-62
2023/12/09 05:04:46;;;;;;;96.38;50.53;;;13.10;2201.60;;;;;;5064578;28;20025;-62
2023/12/09 05:07:12;;;;;;;75.72;41.08;;;12.90;2201.60;;;;;;5063908;28;20068;-61
2023/12/09 05:09:38;;;;;;;68.20;33.83;;;12.90;2201.60;;;;;;5070780;28;20074;-61
2023/12/09 05:12:04;;;;;;;48.45;26.83;;;12.90;2201.60;;;;;;5069489;28;20187;-63
2023/12/09 05:14:30;;;;;;;64.60;34.05;;;13.00;2201.60;;;;;;5070387;28;20025;-62
2023/12/09 05:16:56;;;;;;;92.03;48.20;;;13.00;2201.60;;;;;;5070620;28;20062;-62
2023/12/09 05:19:22;;;;;;;48.60;29.23;;;13.00;2201.60;;;;;;5069763;28;20475;-60
2023/12/09 05:21:48;;;;;;;41.13;23.90;;;12.90;2201.60;;;;;;5071024;28;20111;-63
2023/12/09 05:24:14;;;;;;;38.58;21.83;;;0.00;2201.60;;;;;;5070196;28;20140;-63
2023/12/09 05:26:39;;;;;;;40.33;21.25;;;0.00;2201.60;;;;;;5070283;28;20024;-61
2023/12/09 05:29:06;;;;;;;38.95;20.65;;;0.00;2201.60;;;;;;5070296;28;20032;-62
2023/12/09 05:31:32;;;;;;;33.22;17.77;;;0.00;2201.60;;;;;;5069883;28;20035;-61
2023/12/09 05:33:58;;;;;;;29.83;16.45;;;0.10;2201.60;;;;;;5070265;28;20022;-62
2023/12/09 05:36:24;;;;;;;31.27;19.15;;;0.10;2201.60;;;;;;5070060;28;20024;-61
2023/12/09 05:38:49;;;;;;;34.05;21.35;;;0.10;2201.60;;;;;;5064606;28;20078;-62
2023/12/09 05:41:15;;;;;;;37.95;23.25;;;12.90;2201.60;;;;;;5060552;28;20025;-61
2023/12/09 05:43:43;;;;;;;46.22;26.67;;;13.10;2201.60;;;;;;5070024;28;20035;-62
2023/12/09 05:46:17;;;;;;;40.97;25.25;;;13.20;2201.60;;;;;;5070180;28;20020;-61
2023/12/09 05:48:42;;;;;;;40.13;21.98;;;13.20;2201.60;;;;;;5069798;28;20086;-62
2023/12/09 05:51:09;;;;;;;41.42;25.00;;;13.20;2201.60;;;;;;5069982;28;20025;-61
2023/12/09 05:53:35;;;;;;;37.78;22.42;;;13.10;2201.60;;;;;;5069894;28;20033;-62
2023/12/09 05:56:01;;;;;;;36.90;21.02;;;13.20;2201.60;;;;;;5069993;28;20028;-61
2023/12/09 05:58:27;;;;;;;33.60;18.55;;;13.00;2201.60;;;;;;5069578;28;20478;-61
2023/12/09 06:00:52;;;;;;;33.70;18.05;;;13.10;2201.60;;;;;;5069749;28;20035;-60
2023/12/09 06:03:18;;;;;;;42.90;25.27;;;13.10;2201.60;;;;;;5069727;28;20036;-62
2023/12/09 06:05:44;;;;;;;32.08;17.65;;;13.00;2201.60;;;;;;5069644;28;20117;-62
2023/12/09 06:08:10;;;;;;;37.15;19.33;;;12.90;2201.60;;;;;;5069624;28;20454;-61
2023/12/09 06:10:36;;;;;;;34.70;22.10;;;12.90;2201.60;;;;;;5067843;28;20036;-60
2023/12/09 06:13:01;;;;;;;38.85;20.45;;;0.00;2201.60;;;;;;5064673;28;20072;-63
2023/12/09 06:15:27;;;;;;;42.88;22.83;;;0.00;2201.60;;;;;;5069492;28;20103;-60
2023/12/09 06:17:53;;;;;;;26.95;18.88;;;0.00;2201.60;;;;;;5069393;28;20020;-61
2023/12/09 06:20:19;;;;;;;52.45;30.65;;;0.10;2201.60;;;;;;5069730;28;20028;-61
2023/12/09 06:22:44;;;;;;;38.00;23.52;;;0.00;2201.60;;;;;;5069035;28;20433;-62
2023/12/09 06:25:10;;;;;;;57.70;33.72;;;0.10;2201.60;;;;;;5069421;28;20060;-61
2023/12/09 06:27:36;;;;;;;53.83;29.23;;;0.40;2201.60;;;;;;5069368;28;20028;-61
2023/12/09 06:30:04;;;;;;;118.05;59.10;;;0.30;2201.60;;;;;;5069158;28;20036;-60
2023/12/09 06:32:29;;;;;;;104.03;56.17;;;0.50;2201.60;;;;;;5069111;28;20527;-61
2023/12/09 06:34:55;;;;;;;73.95;39.20;;;0.60;2201.60;;;;;;5069204;28;20029;-61
2023/12/09 06:37:21;;;;;;;104.65;56.65;;;0.70;2201.60;;;;;;5068939;28;20028;-61
2023/12/09 06:39:47;;;;;;;180.85;93.43;;;0.60;2201.60;;;;;;5069320;28;20029;-62
2023/12/09 06:42:14;;;;;;;195.07;109.82;;;0.70;2201.60;;;;;;5068965;28;20021;-61
2023/12/09 06:44:40;;;;;;;78.35;45.15;;;0.70;2201.60;;;;;;5069101;28;20021;-61
2023/12/09 06:47:06;;;;;;;113.88;63.42;;;0.90;2201.60;;;;;;5057528;28;20021;-62
2023/12/09 06:49:32;;;;;;;310.45;185.02;;;0.70;2201.60;;;;;;5068985;28;20044;-62
2023/12/09 06:51:57;;;;;;;211.35;128.18;;;0.60;2201.60;;;;;;5069065;28;20032;-60
2023/12/09 06:54:23;;;;;;;138.13;80.20;;;0.80;2201.60;;;;;;5068655;28;20085;-60
2023/12/09 06:56:50;;;;;;;108.55;62.78;;;0.90;2201.60;;;;;;5069019;28;20035;-60
2023/12/09 06:59:16;;;;;;;51.70;33.85;;;25.70;2201.60;;;;;;5069444;28;20020;-62
2023/12/09 07:01:43;;;;;;;47.53;33.10;;;25.80;2201.60;;;;;;5067634;28;20440;-62
2023/12/09 07:04:09;;;;;;;46.45;23.75;;;25.60;2201.60;;;;;;5069035;28;20050;-61
2023/12/09 07:06:35;;;;;;;40.05;24.05;;;0.80;2201.60;;;;;;5067166;28;20031;-61
2023/12/09 07:09:01;;;;;;;30.92;18.83;;;0.70;2201.60;;;;;;5067906;28;20043;-61
2023/12/09 07:11:28;;;;;;;32.38;19.75;;;0.80;2201.60;;;;;;5068471;28;20025;-60
2023/12/09 07:13:53;;;;;;;101.90;65.20;;;25.70;2201.60;;;;;;5068574;28;20053;-61
2023/12/09 07:16:19;;;;;;;154.80;92.47;;;25.80;2201.60;;;;;;5068363;28;20033;-62
2023/12/09 07:18:46;;;;;;;46.53;30.88;;;26.20;2201.60;;;;;;5066493;28;20029;-62
2023/12/09 07:21:16;;;;;;;40.45;26.27;;;26.40;2201.60;;;;;;5065059;28;20425;-61
2023/12/09 07:23:43;;;;;;;42.28;26.50;;;26.20;2201.60;;;;;;5068541;28;20025;-62
2023/12/09 07:26:09;;;;;;;54.10;31.45;;;26.10;2201.60;;;;;;5068980;28;20033;-60
2023/12/09 07:28:35;;;;;;;42.55;26.60;;;26.10;2201.60;;;;;;5068619;28;20112;-62
2023/12/09 07:31:02;;;;;;;48.83;27.55;;;25.90;2201.60;;;;;;5068070;28;20055;-60
2023/12/09 07:33:28;;;;;;;37.10;24.88;;;25.90;2201.60;;;;;;5068753;28;20543;-61
2023/12/09 07:35:53;;;;;;;37.08;22.58;;;25.90;2201.60;;;;;;5071397;28;20108;-63
2023/12/09 07:38:19;;;;;;;49.65;31.45;;;25.90;2201.60;;;;;;5072657;28;20111;-62
2023/12/09 07:40:46;;;;;;;43.97;27.80;;;25.90;2201.60;;;;;;5072084;28;20093;-61
2023/12/09 07:43:12;;;;;;;36.30;25.02;;;26.00;2201.60;;;;;;5072243;28;20054;-61
2023/12/09 07:45:38;;;;;;;37.33;24.25;;;26.40;2201.60;;;;;;5072289;28;20020;-61
2023/12/09 07:48:04;;;;;;;43.90;25.25;;;26.50;2201.60;;;;;;5071960;28;20169;-61
2023/12/09 07:50:32;;;;;;;37.75;25.27;;;51.40;2227.20;;;;;;5072087;28;20467;-60
2023/12/09 07:52:59;;;;;;;34.85;22.60;;;51.40;2227.20;;;;;;5070769;28;20360;-62
2023/12/09 07:55:25;;;;;;;37.92;23.30;;;51.30;2227.20;;;;;;5068343;28;20027;-62
2023/12/09 07:57:51;;;;;;;41.40;26.83;;;51.40;2227.20;;;;;;5064683;28;20025;-63
2023/12/09 08:00:17;;;;;;;44.70;28.33;;;51.50;2227.20;;;;;;5072126;28;20020;-71
2023/12/09 08:02:43;;;;;;;46.88;30.52;;;51.60;2227.20;;;;;;5069353;28;20028;-67
2023/12/09 08:05:09;;;;;;;45.05;26.58;;;51.70;2227.20;;;;;;5069028;28;20612;-63
2023/12/09 08:07:35;;;;;;;45.22;29.00;;;51.90;2227.20;;;;;;5072028;28;20482;-63
2023/12/09 08:10:01;;;;;;;46.63;29.38;;;52.10;2227.20;;;;;;5071024;28;20044;-63
2023/12/09 08:12:27;;;;;;;42.53;27.85;;;76.80;2227.20;;;;;;5071991;28;20051;-63
2023/12/09 08:14:52;;;;;;;47.58;28.67;;;76.80;2227.20;;;;;;5071664;28;20016;-63
2023/12/09 08:17:18;;;;;;;46.30;28.95;;;76.90;2227.20;;;;;;5071527;28;20032;-63
2023/12/09 08:19:44;;;;;;;53.58;36.13;;;77.30;2227.20;;;;;;5070424;28;20025;-62
2023/12/09 08:22:10;;;;;;;59.13;39.67;;;77.40;2227.20;;;;;;5068460;28;20592;-64
2023/12/09 08:24:35;;;;;;;56.33;37.33;;;77.70;2227.20;;;;;;5071682;28;20427;-63
2023/12/09 08:27:01;;;;;;;54.42;35.88;;;77.70;2227.20;;;;;;5069777;28;20509;-63
2023/12/09 08:29:27;;;;;;;55.90;35.90;;;77.60;2227.20;;;;;;5062901;28;20048;-67
2023/12/09 08:31:53;;;;;;;61.85;40.40;;;77.60;2227.20;;;;;;5070806;28;20098;-65
2023/12/09 08:34:19;;;;;;;57.05;35.47;;;77.60;2227.20;;;;;;5071039;28;20116;-64
2023/12/09 08:36:45;;;;;;;49.05;32.55;;;102.90;2227.20;;;;;;5066280;28;20135;-63
2023/12/09 08:39:11;;;;;;;45.03;29.67;;;128.40;2252.80;;;;;;5070321;28;20035;-66
2023/12/09 08:41:37;;;;;;;41.20;28.08;;;154.30;2252.80;;;;;;5071213;28;20107;-65
2023/12/09 08:44:03;;;;;;;226.48;117.40;;;180.00;2252.80;;;;;;5069741;28;20547;-64
2023/12/09 08:46:30;;;;;;;80.43;48.70;;;205.40;2252.80;;;;;;5069897;28;20036;-64
2023/12/09 08:48:56;;;;;;;52.83;39.95;;;230.90;2252.80;;;;;;5070901;28;20029;-64
2023/12/09 08:51:22;;;;;;;47.78;34.65;;;256.40;2252.80;;;;;;5070648;28;20032;-64
2023/12/09 08:53:49;;;;;;;52.92;39.08;;;256.90;2227.20;;;;;;5071317;28;20063;-64
2023/12/09 08:56:14;;;;;;;49.75;34.75;;;282.10;2176.00;;;;;;5070690;28;20063;-65
2023/12/09 08:58:40;;;;;;;43.80;33.85;;;307.70;2176.00;;;;;;5070998;28;20056;-64
2023/12/09 09:01:06;;;;;;;51.10;39.33;;;307.20;2124.80;;;;;;5070084;28;20017;-64
2023/12/09 09:03:32;;;;;;;41.22;32.50;;;282.40;2073.60;;;;;;5065415;28;20041;-64
2023/12/09 09:05:57;;;;;;;45.90;34.35;;;282.50;2073.60;;;;;;5059073;28;20104;-66
2023/12/09 09:08:23;;;;;;;36.22;30.02;;;282.50;2073.60;;;;;;5070284;28;20142;-65
2023/12/09 09:10:50;;;;;;;36.40;29.45;;;282.30;2048.00;;;;;;5063523;28;20032;-67
2023/12/09 09:13:16;;;;;;;41.40;30.48;;;282.50;2048.00;;;;;;5070638;28;20127;-64
2023/12/09 09:15:42;;;;;;;34.38;24.70;;;307.20;2073.60;;;;;;5063979;28;20577;-63
2023/12/09 09:18:08;;;;;;;38.53;30.60;;;307.20;2048.00;;;;;;5056650;28;20422;-68
2023/12/09 09:20:34;;;;;;;38.38;29.95;;;282.00;2099.20;;;;;;5070248;28;20119;-64
2023/12/09 09:23:00;;;;;;;38.67;31.55;;;282.00;2073.60;;;;;;5070488;28;20139;-63
2023/12/09 09:25:25;;;;;;;50.08;34.55;;;256.80;2124.80;;;;;;5070807;28;20028;-64
2023/12/09 09:27:51;;;;;;;54.35;38.67;;;256.50;2150.40;;;;;;5070051;28;20433;-68
2023/12/09 09:30:22;;;;;;;66.15;49.15;;;256.30;2150.40;;;;;;5070400;28;20021;-64
2023/12/09 09:32:48;;;;;;;62.67;48.55;;;256.10;2176.00;;;;;;5059693;28;20032;-63
2023/12/09 09:35:14;;;;;;;97.70;67.45;;;231.00;2227.20;;;;;;5062210;28;20031;-63
2023/12/09 09:37:40;;;;;;;85.22;62.50;;;230.40;2252.80;;;;;;5070075;28;20025;-63
2023/12/09 09:40:06;;;;;;;108.28;74.32;;;230.40;2252.80;;;;;;5069540;28;20532;-63
2023/12/09 09:42:32;;;;;;;124.63;88.40;;;180.00;2252.80;;;;;;5069996;28;20108;-63
2023/12/09 09:45:09;;;;;;;111.57;81.30;;;179.70;2252.80;;;;;;5069519;28;20419;-70
2023/12/09 09:47:42;;;;;;;111.07;78.85;;;154.40;2252.80;;;;;;5067807;28;20398;-65
2023/12/09 09:50:10;;;;;;;120.70;85.75;;;179.70;2252.80;;;;;;5066198;28;20012;-63
2023/12/09 09:52:37;;;;;;;115.40;83.50;;;180.00;2252.80;;;;;;5070464;28;20028;-62
2023/12/09 09:55:08;;;;;;;134.13;84.30;;;180.10;2252.80;;;;;;5068912;28;20028;-64
2023/12/09 09:57:34;;;;;;;130.98;89.90;;;179.70;2252.80;;;;;;5069745;28;20036;-62
2023/12/09 10:00:12;;;;;;;133.07;90.45;;;179.80;2252.80;;;;;;5069845;28;20009;-63
2023/12/09 10:02:42;;;;;;;131.88;88.53;;;179.40;2252.80;;;;;;5069584;28;20039;-63
2023/12/09 10:05:11;;;;;;;133.18;95.30;;;179.70;2252.80;;;;;;5066323;28;20079;-63
2023/12/09 10:07:37;;;;;;;153.13;110.82;;;179.80;2252.80;;;;;;5064398;28;20520;-63
2023/12/09 10:10:05;;;;;;;150.15;107.32;;;179.40;2252.80;;;;;;5068992;28;20486;-63
2023/12/09 10:12:30;;;;;;;137.35;96.20;;;179.80;2252.80;;;;;;5068818;28;20064;-63
2023/12/09 10:14:56;;;;;;;163.27;117.18;;;179.90;2252.80;;;;;;5069103;28;20024;-68
2023/12/09 10:17:23;;;;;;;153.95;111.53;;;154.50;2252.80;;;;;;5069051;28;20070;-67
2023/12/09 10:19:48;;;;;;;142.10;99.20;;;179.50;2252.80;;;;;;5069187;28;20012;-68
2023/12/09 10:22:14;;;;;;;131.88;95.05;;;179.30;2252.80;;;;;;5070008;28;20477;-65
2023/12/09 10:24:51;;;;;;;137.52;89.40;;;179.20;2252.80;;;;;;5069361;28;20008;-63
2023/12/09 10:27:22;;;;;;;133.98;93.75;;;154.50;2252.80;;;;;;5069021;28;20090;-65
2023/12/09 10:29:49;;;;;;;138.30;98.35;;;179.40;2252.80;;;;;;5069261;28;20055;-63
2023/12/09 10:32:16;;;;;;;143.30;95.82;;;179.50;2252.80;;;;;;5069600;28;20032;-64
2023/12/09 10:34:42;;;;;;;150.60;104.18;;;179.80;2252.80;;;;;;5068875;28;20528;-63
2023/12/09 10:37:12;;;;;;;154.57;110.80;;;179.90;2252.80;;;;;;5069522;28;20413;-63
2023/12/09 10:39:45;;;;;;;148.23;99.38;;;179.90;2252.80;;;;;;5066723;28;20029;-63
2023/12/09 10:42:11;;;;;;;;;;;179.40;2252.80;;;;;;5069335;28;20017;-64
2023/12/09 10:44:38;;;;;;;153.10;102.43;;;154.40;2252.80;;;;;;5051790;28;19911;-63
2023/12/09 10:47:04;;;;;;;118.97;84.03;;;154.50;2252.80;;;;;;5068750;28;20177;-69
2023/12/09 10:49:31;;;;;;;122.63;84.28;;;154.20;2252.80;;;;;;5068934;28;20024;-64
2023/12/09 10:51:57;;;;;;;161.15;116.65;;;179.40;2252.80;;;;;;5068932;28;20028;-64
2023/12/09 10:54:23;;;;;;;100.22;69.50;;;179.70;2252.80;;;;;;5068988;28;20028;-63
2023/12/09 10:56:49;;;;;;;107.80;69.55;;;154.40;2252.80;;;;;;5059595;28;20040;-69
2023/12/09 10:59:19;;;;;;;89.35;57.03;;;179.20;2252.80;;;;;;5068253;28;20036;-69
2023/12/09 11:01:45;;;;;;;82.13;55.45;;;179.20;2252.80;;;;;;5069171;28;20039;-63
2023/12/09 11:04:15;;;;;;;87.72;54.00;;;154.50;2252.80;;;;;;5068679;28;20025;-64
2023/12/09 11:06:44;;;;;;;73.75;52.38;;;154.10;2252.80;;;;;;5068966;28;20060;-63
2023/12/09 11:09:13;;;;;;;81.65;49.35;;;154.50;2252.80;;;;;;5070873;28;20050;-63
2023/12/09 11:11:41;;;;;;;76.43;47.08;;;179.20;2252.80;;;;;;5073210;28;20086;-63
2023/12/09 11:14:09;;;;;;;67.50;44.67;;;179.50;2252.80;;;;;;5066860;28;20033;-63
2023/12/09 11:16:39;;;;;;;70.40;46.53;;;154.30;2252.80;;;;;;5072465;28;20495;-63
2023/12/09 11:19:08;;;;;;;73.15;47.38;;;154.20;2252.80;;;;;;5071772;28;20021;-68
2023/12/09 11:21:35;;;;;;;68.53;45.45;;;154.10;2252.80;;;;;;5066283;28;20031;-67
2023/12/09 11:24:01;;;;;;;70.38;42.72;;;154.10;2252.80;;;;;;5070865;28;20031;-66
2023/12/09 11:26:36;;;;;;;76.95;49.17;;;154.50;2252.80;;;;;;5071008;28;20025;-69
2023/12/09 11:29:07;;;;;;;80.32;50.08;;;154.50;2252.80;;;;;;5072544;28;20478;-68
2023/12/09 11:31:44;;;;;;;69.93;45.33;;;154.50;2252.80;;;;;;5072201;28;20398;-69
2023/12/09 11:34:14;;;;;;;70.13;46.58;;;154.30;2252.80;;;;;;5072644;28;20381;-64
2023/12/09 11:36:41;;;;;;;68.22;41.80;;;179.60;2252.80;;;;;;5071181;28;20029;-63
2023/12/09 11:39:10;;;;;;;82.43;47.35;;;179.30;2252.80;;;;;;5072406;28;20120;-62
2023/12/09 11:41:40;;;;;;;70.60;47.22;;;179.40;2252.80;;;;;;5058890;28;20048;-65
2023/12/09 11:44:07;;;;;;;86.07;51.83;;;179.40;2252.80;;;;;;5071934;28;20029;-67
2023/12/09 11:46:35;;;;;;;70.70;42.88;;;179.60;2252.80;;;;;;5071868;28;20070;-65
2023/12/09 11:49:05;;;;;;;84.35;50.33;;;179.40;2252.80;;;;;;5069998;28;20059;-63
2023/12/09 11:51:34;;;;;;;103.53;61.53;;;179.40;2252.80;;;;;;5057767;28;20063;-64
2023/12/09 11:54:02;;;;;;;94.18;55.72;;;179.70;2252.80;;;;;;5063547;28;20025;-63
2023/12/09 11:56:29;;;;;;;95.82;58.60;;;204.80;2252.80;;;;;;5066997;28;20078;-65
2023/12/09 11:58:55;;;;;;;68.60;45.58;;;180.10;2252.80;;;;;;5071273;28;20116;-68
2023/12/09 12:01:22;;;;;;;84.55;50.08;;;179.90;2252.80;;;;;;5071554;28;20025;-64
2023/12/09 12:03:49;;;;;;;86.05;47.65;;;179.70;2252.80;;;;;;5071000;28;20081;-67